Relevés horaires Beauvechain (Belgique)


Relevés horaires à Beauvechain - Mardi 09 Juin 2020
Heure UTC1 Température [°C] Vent [km/h] Hum. [%] Pres.4 [hPa] Visi. [Km] Nébu. [octa] Préc.5 [mm] Cond.
2m. Res. Ros. Dir.2 Vit. Moy. Raf.3
22:00 12.5 12.5 8.5 NNO 3.7 -- 7.4 77 1018.7(0.2/3h) 20 8/8 -- --
21:00 13.0 13.0 9.1 NNO 3.7 -- 7.4 77 1018.7(0.6/3h) 20 8/8 -- --
20:00 13.3 13.3 9.2 N 3.7 5.6 7.4 76 1018.7(0.5/3h) 20 8/8 -- --
19:00 14.1 14.1 9.0 N 5.6 -- 7.4 71 1018.5(0.3/3h) 20 7/8 -- --
18:00 14.7 14.7 8.8 N 5.6 -- 11.1 68 1018.1(-0.2/3h) 20 7/8 -- --
17:00 14.9 14.9 8.6 N 5.6 -- 11.1 66 1018.1(-0.4/3h) 20 7/8 -- --
16:00 14.8 14.8 8.8 N 5.6 -- 11.1 67 1018.1(-0.6/3h) 20 8/8 -- --
15:00 14.9 14.9 9.3 N 5.6 -- 11.1 69 1018.3(-0.6/3h) 20 8/8 -- --
14:00 14.3 14.2 9.0 NNO 7.4 -- 11.1 70 1018.5(-0.6/3h) 20 8/8 -- --
13:00 13.7 13.5 9.2 N 7.4 -- 11.1 74 1018.7(-0.2/3h) 20 8/8 -- --
12:00 13.3 13 9.0 N 7.4 -- 11.1 75 1019.1(0.0/3h) 20 8/8 -- --
11:00 12.9 12.5 9.1 N 7.4 -- 11.1 78 1019.2(0.3/3h) 20 8/8 -- --
10:00 12.3 12.2 9.0 NNE 5.6 -- 11.1 80 1019.2(0.6/3h) 18 8/8 -- --
09:00 11.7 11.5 8.9 N 5.6 -- 11.1 83 1019.2(0.9/3h) 18 8/8 -- --
08:00 11.3 11.1 8.6 N 5.6 -- 9.3 83 1019(0.9/3h) 15 8/8 -- --
07:00 10.8 10.5 9.0 N 5.6 -- 9.3 89 1018.2(0.8/3h) 18 8/8 -- --
06:00 10.8 10.5 9.0 N 5.6 -- 9.3 89 1018.2(0.8/3h) 18 8/8 -- --
05:00 10.8 10.5 9.3 N 5.6 -- 9.3 90 1018(0.5/3h) 16 -- -- --
04:00 11.1 10.8 9.8 N 5.6 -- 9.3 92 1017.5(0.0/3h) 14 -- -- --
03:00 11.3 11.1 10.0 N 5.6 -- 7.4 92 1017.3(-0.3/3h) 15 -- -- --
02:00 11.5 11.3 10.1 N 5.6 -- 7.4 91 1017.5(-0.3/3h) 14 -- -- --
01:00 11.5 11.5 10.2 NNO 1.9 -- 7.4 92 1017.5(-0.4/3h) 14 -- -- --
00:00 11.5 11.3 10.0 NO 5.6 -- 13.0 90 1017.7(0.0/3h) 16 -- -- --

1 Coordinated Universal Time. Actuellement il est 12:00 locale et 10:00 UTC.

2 Le vent souffle depuis la direction indiquée vers la direction oposée.

3 Les rafales max. sont disponible 40 min après l'heure du relevé.

4 Pour les stations d'altitude (plus de 600m) le géopotentiel du niveau le plus proche de la pression obligatoire est indiqué.

5 Les stations disposant d'un diffuseur peuvent indiquer "trace". Cela signifie que des précipitations ont touchés le sol mais que la quantité est inférieure à 0.1 mm.

Récapitulatif de la journée
Température [°C] Vent [km/h] Ensoleillement4 [h] Precipitations totale5 [mm] Pression [Hpa]
Min1 Max.2 Moy.3 Max. Min Max.
10.8 15.2 5.6 13.0 0 h 0 min 0 1017.3 1019.2

1 Température minimale relevée entre 18:00 UTC la veille et 18:00 UTC le jour donné.

2 Température maximale relevée entre 06:00 UTC le jour donné et 06:00 UTC le lendemain.

3 Vent moyen de la journée basé sur les relevés horaires.

4 Ensoleillement en heures relevé entre 06:00 UTC la veille et 06:00 UTC le jour donné.

5 Précipitations totales tombées entre 06:00 UTC la jour donné et 06:00 UTC le lendemain.

Graphiques horaires